createdAt,value
2023-01-09T00:01:21.973Z,4.16
2023-01-09T00:03:48.693Z,4.44
2023-01-09T00:06:15.368Z,4.51
2023-01-09T00:08:42.469Z,4.48
2023-01-09T00:11:09.165Z,4.65
2023-01-09T00:13:36.205Z,4.76
2023-01-09T00:16:05.003Z,4.77
2023-01-09T00:18:31.682Z,4.63
2023-01-09T00:21:04.081Z,4.59
2023-01-09T00:23:31.111Z,4.62
2023-01-09T00:26:18.680Z,4.73
2023-01-09T00:28:46.456Z,4.70
2023-01-09T00:31:13.736Z,4.74
2023-01-09T00:33:54.165Z,4.82
2023-01-09T00:36:21.010Z,4.51
2023-01-09T00:38:47.633Z,3.82
2023-01-09T00:41:18.409Z,4.08
2023-01-09T00:43:49.173Z,4.31
2023-01-09T00:46:18.603Z,4.22
2023-01-09T00:48:47.350Z,3.95
2023-01-09T00:51:14.927Z,4.05
2023-01-09T00:53:43.465Z,3.94
2023-01-09T00:56:15.344Z,3.81
2023-01-09T00:58:42.364Z,3.58
2023-01-09T01:01:09.133Z,3.85
2023-01-09T01:03:35.901Z,3.91
2023-01-09T01:06:02.484Z,3.64
2023-01-09T01:08:29.965Z,3.47
2023-01-09T01:10:56.651Z,3.52
2023-01-09T01:13:23.433Z,3.27
2023-01-09T01:15:50.035Z,3.24
2023-01-09T01:18:16.756Z,3.47
2023-01-09T01:20:45.146Z,3.44
2023-01-09T01:23:12.400Z,3.44
2023-01-09T01:25:41.349Z,3.55
2023-01-09T01:28:08.678Z,3.66
2023-01-09T01:30:40.819Z,3.38
2023-01-09T01:33:08.755Z,3.61
2023-01-09T01:35:35.696Z,3.74
2023-01-09T01:38:02.759Z,3.85
2023-01-09T01:40:30.023Z,3.85
2023-01-09T01:42:56.848Z,3.68
2023-01-09T01:45:29.060Z,4.09
2023-01-09T01:48:12.780Z,4.24
2023-01-09T01:51:03.863Z,4.02
2023-01-09T01:53:35.554Z,3.91
2023-01-09T01:56:08.328Z,4.03
2023-01-09T01:58:40.412Z,4.31
2023-01-09T02:01:07.816Z,4.27
2023-01-09T02:03:36.562Z,4.29
2023-01-09T02:06:04.289Z,4.06
2023-01-09T02:08:32.105Z,3.98
2023-01-09T02:10:58.954Z,3.96
2023-01-09T02:13:26.647Z,3.80
2023-01-09T02:16:06.609Z,3.58
2023-01-09T02:18:57.869Z,3.58
2023-01-09T02:21:27.248Z,3.47
2023-01-09T02:24:08.753Z,3.40
2023-01-09T02:27:07.559Z,3.77
2023-01-09T02:30:04.781Z,3.81
2023-01-09T02:32:54.549Z,3.92
2023-01-09T02:35:30.084Z,4.07
2023-01-09T02:38:05.678Z,3.95
2023-01-09T02:40:39.444Z,3.83
2023-01-09T02:43:08.293Z,3.79
2023-01-09T02:45:34.931Z,3.91
2023-01-09T02:48:01.728Z,3.77
2023-01-09T02:50:39.611Z,3.85
2023-01-09T02:53:17.888Z,3.73
2023-01-09T02:56:00.417Z,4.00
2023-01-09T02:58:48.544Z,3.98
2023-01-09T03:01:41.832Z,3.78
2023-01-09T03:04:16.631Z,3.91
2023-01-09T03:07:01.570Z,4.09
2023-01-09T03:09:33.177Z,3.77
2023-01-09T03:12:13.928Z,3.53
2023-01-09T03:14:55.576Z,3.44
2023-01-09T03:17:38.337Z,3.57
2023-01-09T03:20:09.029Z,3.68
2023-01-09T03:22:35.898Z,3.73
2023-01-09T03:25:02.580Z,4.04
2023-01-09T03:27:29.318Z,4.14
2023-01-09T03:29:55.918Z,4.21
2023-01-09T03:32:22.584Z,3.75
2023-01-09T03:34:49.335Z,3.95
2023-01-09T03:37:16.074Z,4.10
2023-01-09T03:39:42.663Z,4.27
2023-01-09T03:42:09.443Z,3.78
2023-01-09T03:44:36.033Z,3.65
2023-01-09T03:47:02.693Z,3.85
2023-01-09T03:49:29.330Z,3.96
2023-01-09T03:51:56.098Z,3.89
2023-01-09T03:54:22.759Z,3.78
2023-01-09T03:56:49.521Z,4.01
2023-01-09T03:59:16.115Z,4.20
2023-01-09T04:01:42.828Z,4.18
2023-01-09T04:04:09.603Z,4.08
2023-01-09T04:06:36.352Z,4.14
2023-01-09T04:09:03.048Z,4.09
2023-01-09T04:11:29.730Z,4.08
2023-01-09T04:13:56.301Z,4.23
2023-01-09T04:16:23.044Z,4.06
2023-01-09T04:18:49.699Z,4.18
2023-01-09T04:21:16.346Z,3.95
2023-01-09T04:23:42.961Z,3.97
2023-01-09T04:26:09.948Z,3.88
2023-01-09T04:28:36.707Z,3.58
2023-01-09T04:31:03.369Z,3.64
2023-01-09T04:33:29.986Z,3.65
2023-01-09T04:35:56.757Z,3.81
2023-01-09T04:38:23.348Z,3.94
2023-01-09T04:40:50.152Z,3.64
2023-01-09T04:43:16.741Z,3.90
2023-01-09T04:45:43.443Z,3.90
2023-01-09T04:48:10.438Z,3.61
2023-01-09T04:50:37.087Z,3.85
2023-01-09T04:53:04.004Z,4.02
2023-01-09T04:55:30.747Z,4.00
2023-01-09T04:57:57.349Z,4.08
2023-01-09T05:00:24.342Z,4.24
2023-01-09T05:02:51.094Z,4.08
2023-01-09T05:05:17.863Z,3.92
2023-01-09T05:07:44.456Z,3.73
2023-01-09T05:10:12.006Z,4.11
2023-01-09T05:12:39.890Z,4.06
2023-01-09T05:15:08.038Z,4.11
2023-01-09T05:17:34.881Z,4.20
2023-01-09T05:20:01.547Z,4.22
2023-01-09T05:22:28.251Z,4.40
2023-01-09T05:24:55.298Z,4.64
2023-01-09T05:27:21.969Z,4.73
2023-01-09T05:29:48.579Z,4.74
2023-01-09T05:32:15.233Z,4.96
2023-01-09T05:34:41.996Z,4.91
2023-01-09T05:37:08.637Z,4.80
2023-01-09T05:39:35.427Z,4.58
2023-01-09T05:42:02.021Z,4.56
2023-01-09T05:44:28.728Z,4.56
2023-01-09T05:46:55.799Z,4.27
2023-01-09T05:49:22.419Z,4.40
2023-01-09T05:51:49.085Z,4.39
2023-01-09T05:54:15.911Z,4.14
2023-01-09T05:56:42.539Z,4.03
2023-01-09T05:59:09.365Z,4.02
2023-01-09T06:01:36.236Z,3.66
2023-01-09T06:04:02.957Z,3.97
2023-01-09T06:06:29.570Z,3.80
2023-01-09T06:08:56.446Z,3.78
2023-01-09T06:11:23.037Z,3.88
2023-01-09T06:13:49.742Z,3.77
2023-01-09T06:16:16.495Z,3.56
2023-01-09T06:18:43.160Z,3.53
2023-01-09T06:21:09.759Z,3.45
2023-01-09T06:23:36.507Z,3.61
2023-01-09T06:26:03.280Z,3.70
2023-01-09T06:28:29.942Z,3.62
2023-01-09T06:30:56.591Z,3.68
2023-01-09T06:33:23.276Z,3.65
2023-01-09T06:35:49.858Z,3.56
2023-01-09T06:38:16.622Z,3.42
2023-01-09T06:40:43.221Z,3.50
2023-01-09T06:43:09.896Z,3.20
2023-01-09T06:45:36.870Z,3.39
2023-01-09T06:48:03.716Z,3.39
2023-01-09T06:50:30.311Z,3.45
2023-01-09T06:52:57.039Z,3.69
2023-01-09T06:55:23.619Z,3.92
2023-01-09T06:57:50.468Z,3.87
2023-01-09T07:00:17.882Z,3.76
2023-01-09T07:02:44.544Z,3.72
2023-01-09T07:05:11.164Z,3.89
2023-01-09T07:07:39.007Z,3.86
2023-01-09T07:10:06.444Z,3.89
2023-01-09T07:12:33.175Z,3.46
2023-01-09T07:14:59.810Z,3.83
2023-01-09T07:17:26.674Z,3.71
2023-01-09T07:19:53.288Z,3.77
2023-01-09T07:22:20.287Z,3.82
2023-01-09T07:24:47.020Z,3.92
2023-01-09T07:27:13.704Z,4.03
2023-01-09T07:29:40.320Z,3.68
2023-01-09T07:32:07.011Z,3.79
2023-01-09T07:34:33.912Z,3.85
2023-01-09T07:37:00.812Z,3.67
2023-01-09T07:39:27.518Z,3.56
2023-01-09T07:41:54.277Z,3.50
2023-01-09T07:44:21.003Z,3.32
2023-01-09T07:46:47.686Z,3.38
2023-01-09T07:49:14.267Z,3.44
2023-01-09T07:51:41.106Z,3.08
2023-01-09T07:54:07.693Z,3.07
2023-01-09T07:56:34.360Z,2.89
2023-01-09T07:59:01.348Z,2.85
2023-01-09T08:01:28.211Z,2.85
2023-01-09T08:03:54.880Z,2.90
2023-01-09T08:06:21.887Z,2.97
2023-01-09T08:08:48.615Z,3.13
2023-01-09T08:11:15.744Z,3.20
2023-01-09T08:13:42.509Z,3.00
2023-01-09T08:16:09.276Z,2.63
2023-01-09T08:18:36.072Z,2.63
2023-01-09T08:21:03.468Z,2.86
2023-01-09T08:23:30.105Z,2.73
2023-01-09T08:25:56.843Z,2.83
2023-01-09T08:28:23.508Z,2.90
2023-01-09T08:30:50.334Z,2.90
2023-01-09T08:33:16.932Z,2.85
2023-01-09T08:35:44.847Z,2.83
2023-01-09T08:38:11.674Z,2.53
2023-01-09T08:40:38.648Z,2.78
2023-01-09T08:43:05.307Z,3.16
2023-01-09T08:45:32.493Z,3.42
2023-01-09T08:47:59.273Z,3.54
2023-01-09T08:50:25.973Z,3.52
2023-01-09T08:52:52.554Z,3.49
2023-01-09T08:55:19.159Z,3.51
2023-01-09T08:57:53.327Z,3.57
2023-01-09T09:00:23.103Z,3.52
2023-01-09T09:03:00.694Z,3.60
2023-01-09T09:05:29.462Z,3.60
2023-01-09T09:07:56.644Z,3.80
2023-01-09T09:10:26.979Z,3.80
2023-01-09T09:12:55.824Z,3.63
2023-01-09T09:15:23.182Z,3.72
2023-01-09T09:17:55.200Z,3.73
2023-01-09T09:20:24.371Z,3.48
2023-01-09T09:22:51.478Z,3.54
2023-01-09T09:25:19.096Z,3.53
2023-01-09T09:27:45.966Z,3.73
2023-01-09T09:30:14.729Z,3.77
2023-01-09T09:32:41.889Z,3.89
2023-01-09T09:35:09.074Z,3.88
2023-01-09T09:37:36.022Z,3.87
2023-01-09T09:40:17.633Z,4.14
2023-01-09T09:42:51.021Z,4.38
2023-01-09T09:45:41.861Z,4.47
2023-01-09T09:48:20.313Z,3.73
2023-01-09T09:51:14.859Z,3.94
2023-01-09T09:53:59.419Z,3.85
2023-01-09T09:56:28.977Z,3.59
2023-01-09T09:59:07.830Z,3.46
2023-01-09T10:01:41.969Z,3.87
2023-01-09T10:04:15.263Z,4.03
2023-01-09T10:06:49.674Z,3.74
2023-01-09T10:09:25.721Z,3.97
2023-01-09T10:12:01.687Z,4.31
2023-01-09T10:14:28.702Z,4.38
2023-01-09T10:17:15.865Z,4.14
2023-01-09T10:19:51.669Z,4.32
2023-01-09T10:22:32.094Z,4.10
2023-01-09T10:25:15.128Z,4.15
2023-01-09T10:28:28.309Z,3.85
2023-01-09T10:31:09.678Z,3.86
2023-01-09T10:34:02.729Z,3.95
2023-01-09T10:37:00.037Z,3.84
2023-01-09T10:39:57.385Z,3.74
2023-01-09T10:42:50.793Z,3.80
2023-01-09T10:45:30.164Z,3.94
2023-01-09T10:48:06.262Z,3.79
2023-01-09T10:50:40.319Z,3.61
2023-01-09T10:53:40.369Z,3.72
2023-01-09T10:56:23.145Z,3.80
2023-01-09T10:58:51.571Z,3.58
2023-01-09T11:01:38.738Z,3.54
2023-01-09T11:04:34.670Z,3.54
2023-01-09T11:07:32.929Z,3.48
2023-01-09T11:10:07.142Z,3.62
2023-01-09T11:12:35.555Z,3.97
2023-01-09T11:15:17.412Z,3.85
2023-01-09T11:17:45.316Z,3.56
2023-01-09T11:20:28.040Z,3.84
2023-01-09T11:22:57.443Z,3.81
2023-01-09T11:25:27.409Z,3.83
2023-01-09T11:28:03.209Z,4.08
2023-01-09T11:30:31.879Z,3.91
2023-01-09T11:32:59.062Z,4.23
2023-01-09T11:35:34.633Z,4.18
2023-01-09T11:38:15.120Z,4.32
2023-01-09T11:40:54.913Z,4.36
2023-01-09T11:43:35.347Z,4.13
2023-01-09T11:46:05.085Z,3.93
2023-01-09T11:48:31.635Z,4.08
2023-01-09T11:51:00.401Z,4.24
2023-01-09T11:53:28.158Z,4.38
2023-01-09T11:56:00.845Z,4.51
2023-01-09T11:58:32.335Z,4.72
2023-01-09T12:01:15.109Z,4.67
2023-01-09T12:04:03.162Z,4.13
2023-01-09T12:07:13.991Z,4.37
2023-01-09T12:09:55.447Z,4.29
2023-01-09T12:12:49.273Z,4.30
2023-01-09T12:15:29.528Z,3.95
2023-01-09T12:18:33.083Z,4.20
2023-01-09T12:20:59.743Z,4.14
2023-01-09T12:23:55.148Z,4.28
2023-01-09T12:26:32.300Z,4.37
2023-01-09T12:29:29.731Z,4.51
2023-01-09T12:31:56.392Z,4.73
2023-01-09T12:34:37.850Z,4.77
2023-01-09T12:37:45.051Z,4.67
2023-01-09T12:40:11.696Z,4.43
2023-01-09T12:42:56.443Z,4.44
2023-01-09T12:45:33.185Z,4.47
2023-01-09T12:48:08.332Z,4.46
2023-01-09T12:50:44.100Z,4.46
2023-01-09T12:53:35.639Z,4.59
2023-01-09T12:56:05.457Z,4.63
2023-01-09T12:58:44.500Z,4.69
2023-01-09T13:01:17.418Z,4.74
2023-01-09T13:04:08.603Z,4.51
2023-01-09T13:06:40.403Z,4.42
2023-01-09T13:09:33.020Z,4.45
2023-01-09T13:12:04.442Z,4.63
2023-01-09T13:14:49.108Z,4.77
2023-01-09T13:17:24.927Z,4.92
2023-01-09T13:19:56.484Z,4.75
2023-01-09T13:22:27.356Z,4.84
2023-01-09T13:25:03.172Z,4.83
2023-01-09T13:27:35.132Z,4.97
2023-01-09T13:30:11.184Z,5.12
2023-01-09T13:32:50.152Z,5.17
2023-01-09T13:35:16.900Z,4.96
2023-01-09T13:37:51.069Z,5.18
2023-01-09T13:40:20.600Z,5.22
2023-01-09T13:42:57.827Z,5.12
2023-01-09T13:45:28.174Z,4.97
2023-01-09T13:48:26.259Z,4.99
2023-01-09T13:50:53.206Z,4.75
2023-01-09T13:53:19.808Z,4.88
2023-01-09T13:55:58.986Z,4.82
2023-01-09T13:58:38.080Z,4.76
2023-01-09T14:01:24.838Z,4.81
2023-01-09T14:04:09.804Z,4.68
2023-01-09T14:06:36.982Z,4.52
2023-01-09T14:09:22.534Z,4.45
2023-01-09T14:12:03.312Z,4.02
2023-01-09T14:14:32.757Z,4.21
2023-01-09T14:17:00.480Z,3.96
2023-01-09T14:19:39.719Z,4.00
2023-01-09T14:22:08.128Z,3.98
2023-01-09T14:24:44.930Z,3.97
2023-01-09T14:27:49.233Z,3.89
2023-01-09T14:30:27.918Z,3.83
2023-01-09T14:33:19.220Z,3.82
2023-01-09T14:35:52.316Z,3.72
2023-01-09T14:38:32.027Z,4.15
2023-01-09T14:41:26.894Z,4.20
2023-01-09T14:44:13.397Z,4.04
2023-01-09T14:46:40.445Z,4.23
2023-01-09T14:49:30.307Z,4.24
2023-01-09T14:52:00.590Z,4.16
2023-01-09T14:54:37.452Z,4.28
2023-01-09T14:57:23.492Z,4.01
2023-01-09T15:00:17.293Z,3.87
2023-01-09T15:02:46.966Z,3.73
2023-01-09T15:05:21.409Z,3.74
2023-01-09T15:08:04.439Z,4.07
2023-01-09T15:10:38.152Z,3.25
2023-01-09T15:13:08.237Z,3.50
2023-01-09T15:15:35.649Z,3.91
2023-01-09T15:18:08.338Z,3.44
2023-01-09T15:20:35.273Z,3.70
2023-01-09T15:23:02.120Z,3.47
2023-01-09T15:25:38.802Z,3.91
2023-01-09T15:28:31.368Z,3.90
2023-01-09T15:31:03.153Z,3.09
2023-01-09T15:33:31.262Z,4.05
2023-01-09T15:35:58.430Z,3.10
2023-01-09T15:38:26.443Z,3.56
2023-01-09T15:41:23.811Z,3.77
2023-01-09T15:43:50.668Z,1.51
2023-01-09T15:46:17.497Z,3.49
2023-01-09T15:48:44.440Z,2.94
2023-01-09T15:51:15.687Z,2.90
2023-01-09T15:53:45.413Z,1.54
2023-01-09T15:56:12.033Z,3.53
2023-01-09T15:58:44.421Z,2.98
2023-01-09T16:01:30.973Z,3.76
2023-01-09T16:04:06.768Z,3.75
2023-01-09T16:06:50.040Z,3.66
2023-01-09T16:09:25.973Z,3.73
2023-01-09T16:11:56.707Z,2.51
2023-01-09T16:14:41.281Z,3.74
2023-01-09T16:17:15.560Z,3.22
2023-01-09T16:19:56.751Z,3.31
2023-01-09T16:22:42.043Z,3.36
2023-01-09T16:25:29.395Z,2.81
2023-01-09T16:28:09.561Z,3.21
2023-01-09T16:30:36.654Z,3.33
2023-01-09T16:33:03.496Z,2.78
2023-01-09T16:35:30.454Z,2.88
2023-01-09T16:37:57.317Z,2.93
2023-01-09T16:40:26.371Z,3.48
2023-01-09T16:42:59.088Z,2.96
2023-01-09T16:45:29.644Z,2.79
2023-01-09T16:47:56.615Z,2.60
2023-01-09T16:50:23.955Z,2.28
2023-01-09T16:52:51.305Z,2.51
2023-01-09T16:55:18.359Z,2.03
2023-01-09T16:57:45.283Z,2.23
2023-01-09T17:00:20.279Z,2.62
2023-01-09T17:02:47.128Z,2.55
2023-01-09T17:05:13.927Z,2.50
2023-01-09T17:07:40.705Z,2.50
2023-01-09T17:10:18.709Z,2.90
2023-01-09T17:12:45.409Z,2.72
2023-01-09T17:15:12.018Z,2.39
2023-01-09T17:17:38.868Z,2.67
2023-01-09T17:20:19.640Z,3.22
2023-01-09T17:22:46.374Z,2.46
2023-01-09T17:25:16.481Z,2.93
2023-01-09T17:27:43.239Z,2.58
2023-01-09T17:30:18.874Z,3.08
2023-01-09T17:32:46.534Z,2.89
2023-01-09T17:35:13.803Z,1.72
2023-01-09T17:37:41.210Z,1.91
2023-01-09T17:40:19.950Z,2.87
2023-01-09T17:42:46.648Z,2.44
2023-01-09T17:45:13.661Z,2.90
2023-01-09T17:47:40.496Z,2.64
2023-01-09T17:50:16.213Z,2.21
2023-01-09T17:52:43.003Z,2.26
2023-01-09T17:55:09.789Z,1.74
2023-01-09T17:57:37.581Z,2.24
2023-01-09T18:00:06.036Z,2.50
2023-01-09T18:02:33.518Z,2.49
2023-01-09T18:05:00.162Z,2.13
2023-01-09T18:07:26.867Z,2.22
2023-01-09T18:09:53.498Z,2.21
2023-01-09T18:12:20.275Z,2.13
2023-01-09T18:14:47.971Z,1.77
2023-01-09T18:17:14.758Z,1.81
2023-01-09T18:19:41.473Z,2.38
2023-01-09T18:22:09.112Z,1.72
2023-01-09T18:24:36.868Z,1.74
2023-01-09T18:27:04.482Z,0.07
2023-01-09T18:29:31.221Z,0.26
2023-01-09T18:31:57.983Z,1.76
2023-01-09T18:34:24.864Z,1.69
2023-01-09T18:36:52.000Z,0.92
2023-01-09T18:39:18.623Z,1.41
2023-01-09T18:41:45.420Z,0.11
2023-01-09T18:44:12.269Z,1.72
2023-01-09T18:46:39.607Z,1.26
2023-01-09T18:49:06.429Z,1.90
2023-01-09T18:51:34.978Z,2.23
2023-01-09T18:54:01.625Z,0.34
2023-01-09T18:56:28.511Z,1.00
2023-01-09T18:58:59.086Z,2.19
2023-01-09T19:01:30.120Z,1.88
2023-01-09T19:03:58.713Z,2.13
2023-01-09T19:06:26.534Z,2.05
2023-01-09T19:08:53.348Z,2.24
2023-01-09T19:11:20.086Z,2.41
2023-01-09T19:13:47.039Z,1.70
2023-01-09T19:16:13.753Z,1.68
2023-01-09T19:18:42.668Z,1.50
2023-01-09T19:21:18.958Z,2.37
2023-01-09T19:23:50.368Z,2.06
2023-01-09T19:26:24.155Z,-0.15
2023-01-09T19:28:51.614Z,-0.31
2023-01-09T19:31:18.643Z,2.15
2023-01-09T19:33:48.223Z,2.06
2023-01-09T19:36:15.241Z,1.59
2023-01-09T19:38:42.223Z,1.68
2023-01-09T19:41:11.546Z,0.37
2023-01-09T19:43:40.547Z,1.88
2023-01-09T19:46:14.177Z,1.98
2023-01-09T19:48:41.293Z,1.33
2023-01-09T19:51:11.234Z,1.56
2023-01-09T19:53:38.844Z,1.57
2023-01-09T19:56:16.565Z,1.20
2023-01-09T19:58:50.719Z,2.04
2023-01-09T20:01:21.156Z,1.85
2023-01-09T20:03:48.579Z,-0.08
2023-01-09T20:06:17.646Z,0.08
2023-01-09T20:08:48.505Z,1.86
2023-01-09T20:11:16.055Z,1.67
2023-01-09T20:13:43.520Z,-0.23
2023-01-09T20:16:16.173Z,1.81
2023-01-09T20:18:43.250Z,1.35
2023-01-09T20:21:12.294Z,1.10
2023-01-09T20:23:39.456Z,1.08
2023-01-09T20:26:06.040Z,1.39
2023-01-09T20:28:32.952Z,1.48
2023-01-09T20:31:00.836Z,0.54
2023-01-09T20:33:27.653Z,-0.33
2023-01-09T20:35:54.328Z,1.90
2023-01-09T20:38:20.990Z,2.09
2023-01-09T20:40:47.597Z,1.98
2023-01-09T20:43:14.502Z,1.92
2023-01-09T20:45:41.436Z,1.94
2023-01-09T20:48:08.327Z,1.81
2023-01-09T20:50:35.183Z,1.91
2023-01-09T20:53:03.384Z,1.93
2023-01-09T20:55:33.370Z,2.20
2023-01-09T20:58:00.037Z,1.58
2023-01-09T21:00:26.657Z,1.72
2023-01-09T21:02:54.179Z,2.14
2023-01-09T21:05:20.926Z,1.77
2023-01-09T21:07:47.944Z,1.83
2023-01-09T21:10:14.531Z,2.18
2023-01-09T21:12:41.171Z,-0.17
2023-01-09T21:15:09.147Z,1.92
2023-01-09T21:17:38.664Z,2.20
2023-01-09T21:20:08.191Z,2.10
2023-01-09T21:22:36.148Z,1.25
2023-01-09T21:25:04.786Z,1.88
2023-01-09T21:27:32.068Z,1.77
2023-01-09T21:29:58.702Z,1.39
2023-01-09T21:32:25.482Z,1.69
2023-01-09T21:34:52.188Z,1.61
2023-01-09T21:37:18.970Z,1.71
2023-01-09T21:39:45.613Z,1.87
2023-01-09T21:42:12.551Z,2.29
2023-01-09T21:44:39.316Z,2.37
2023-01-09T21:47:06.027Z,1.21
2023-01-09T21:49:32.704Z,2.35
2023-01-09T21:51:59.394Z,2.35
2023-01-09T21:54:26.121Z,1.92
2023-01-09T21:56:53.505Z,2.34
2023-01-09T21:59:20.103Z,1.03
2023-01-09T22:01:51.111Z,2.38
2023-01-09T22:04:20.625Z,2.35
2023-01-09T22:06:47.325Z,1.82
2023-01-09T22:09:14.867Z,0.69
2023-01-09T22:11:42.585Z,2.55
2023-01-09T22:14:14.267Z,2.49
2023-01-09T22:16:42.299Z,1.70
2023-01-09T22:19:09.288Z,2.00
2023-01-09T22:21:35.984Z,1.64
2023-01-09T22:24:02.630Z,1.86
2023-01-09T22:26:29.950Z,2.30
2023-01-09T22:28:56.897Z,1.57
2023-01-09T22:31:24.692Z,2.65
2023-01-09T22:33:56.463Z,2.34
2023-01-09T22:36:24.352Z,1.86
2023-01-09T22:38:54.248Z,1.98
2023-01-09T22:41:21.808Z,1.99
2023-01-09T22:43:48.555Z,2.03
2023-01-09T22:46:15.275Z,1.89
2023-01-09T22:48:41.993Z,1.61
2023-01-09T22:51:14.325Z,1.93
2023-01-09T22:53:41.581Z,2.07
2023-01-09T22:56:12.696Z,2.04
2023-01-09T22:58:39.836Z,2.45
2023-01-09T23:01:06.829Z,1.75
2023-01-09T23:03:33.530Z,1.15
2023-01-09T23:06:11.477Z,1.39
2023-01-09T23:08:38.954Z,2.12
2023-01-09T23:11:08.504Z,1.82
2023-01-09T23:13:35.554Z,2.05
2023-01-09T23:16:02.334Z,1.34
2023-01-09T23:18:29.072Z,1.43
2023-01-09T23:20:58.613Z,2.01
2023-01-09T23:23:26.891Z,1.42
2023-01-09T23:25:56.112Z,2.04
2023-01-09T23:28:24.356Z,2.02
2023-01-09T23:30:51.049Z,0.72
2023-01-09T23:33:17.735Z,1.31
2023-01-09T23:35:44.421Z,1.94
2023-01-09T23:38:11.542Z,2.31
2023-01-09T23:40:39.527Z,2.27
2023-01-09T23:43:06.215Z,1.94
2023-01-09T23:45:33.833Z,2.57
2023-01-09T23:48:00.611Z,2.11
2023-01-09T23:50:27.222Z,0.92
2023-01-09T23:52:54.043Z,2.57
2023-01-09T23:55:20.734Z,2.27
2023-01-09T23:57:47.491Z,1.73
